• Join FlightAware (Why Join?)
  • Login
  • US Flag 
 
04:05AM EST


 

Airport Tracker/Info


-or-


 

Live Flight TrackerFlight Track Log ✈ EGF3676 ✈ 02-May-2013 ✈ KDEN - KLAX

Flight Track Log - Related Links

Times and Time Zones

All times are in EDT time to prevent confusion due to time zone crossing. See the EGF3676 flight status page for this flight to view local times or setup timezone preferences in your user account.

Time Position Orientation Groundspeed Altitude Reporting Facility
EDT Latitude Longitude Course Direction KTS MPH feet Rate Location/Type
06:46PM 39.9500 -104.7000 255° West 204 235 7,900  Level Denver TRACON
06:47PM 39.9500 -104.7833 270° West 255 293 9,900 2,460 Climbing Denver TRACON
06:48PM 39.6828 -105.1850 247° West  Level FlightAware Approximate
06:48PM 39.9167 -104.8667 242° Southwest 279 321 12,600  Level Denver TRACON
06:49PM 39.6450 -105.3164 248° West  Level FlightAware Approximate
06:49PM 39.8803 -104.9597 243° Southwest 294 338 15,000  Level Denver Center
06:50PM 39.6049 -105.4468 248° West  Level FlightAware Approximate
06:50PM 39.8319 -105.0586 238° Southwest 325 374 16,800  Level Denver Center
06:51PM 39.5594 -105.5698 255° West  Level FlightAware Approximate
06:51PM 39.7750 -105.1739 237° Southwest 349 402 18,700  Level Denver Center
06:52PM 39.7183 -105.2878 237° Southwest 374 430 20,200 1,260 Climbing Denver Center
06:53PM 39.6572 -105.4108 237° Southwest 410 472 21,400 1,080 Climbing Denver Center
06:54PM 39.5856 -105.5506 236° Southwest 433 498 22,500 1,200 Climbing Denver Center
06:55PM 39.5294 -105.6953 243° Southwest 448 516 23,900 1,320 Climbing Denver Center
06:56PM 39.4936 -105.8328 251° West 431 496 25,300 1,560 Climbing Denver Center
06:57PM 39.4458 -106.0089 251° West 440 506 27,100 1,560 Climbing Denver Center
06:58PM 39.4025 -106.1589 250° West 442 509 28,600 1,500 Climbing Denver Center
06:59PM 39.3583 -106.3164 250° West 438 504 30,200 1,260 Climbing Denver Center
07:00PM 39.3189 -106.4564 250° West 434 499 31,300 960 Climbing Denver Center
07:01PM 39.2633 -106.6467 249° West 443 510 32,500 840 Climbing Denver Center
07:02PM 39.2061 -106.7817 241° Southwest 448 516 33,300 840 Climbing Denver Center
07:03PM 39.1111 -106.9283 230° Southwest 470 541 34,300 900 Climbing Denver Center
07:04PM 39.0328 -107.0528 231° Southwest 468 539 35,200 960 Climbing Denver Center
07:05PM 38.9431 -107.1961 231° Southwest 460 529 36,400 960 Climbing Denver Center
07:06PM 38.8661 -107.3161 231° Southwest 454 522 37,300 720 Climbing Denver Center
07:07PM 38.7911 -107.4336 231° Southwest 445 512 38,000 300 Climbing Denver Center
07:08PM 38.7014 -107.5717 230° Southwest 450 518 38,000  Level Denver Center
07:10PM 38.6231 -107.6953 231° Southwest 460 529 38,000  Level Denver Center
07:11PM 38.5317 -107.8358 230° Southwest 459 528 38,000  Level Denver Center
07:12PM 38.4533 -107.9569 230° Southwest 461 531 38,000  Level Denver Center
07:13PM 38.3614 -108.0975 230° Southwest 461 531 38,000  Level Denver Center
07:14PM 38.2828 -108.2172 230° Southwest 459 528 38,000  Level Denver Center
07:15PM 38.1917 -108.3572 230° Southwest 460 529 38,000  Level Denver Center
07:16PM 38.1142 -108.4731 230° Southwest 452 520 38,000  Level Denver Center
07:17PM 38.0339 -108.5933 230° Southwest 449 517 38,000  Level Denver Center
07:18PM 37.9450 -108.7261 230° Southwest 444 511 38,000  Level Denver Center
07:19PM 37.8683 -108.8411 230° Southwest 446 513 38,000  Level Denver Center
07:20PM 37.7881 -108.9781 233° Southwest 436 502 38,000  Level Denver Center
07:21PM 37.7322 -109.1044 241° Southwest 431 496 38,000  Level Denver Center
07:22PM 37.6664 -109.2522 241° Southwest 432 497 38,000  Level Denver Center
07:23PM 37.6103 -109.3772 240° Southwest 430 495 38,000  Level Denver Center
07:24PM 37.5450 -109.5244 241° Southwest 431 496 38,000  Level Denver Center
07:25PM 37.4892 -109.6481 240° Southwest 427 491 38,000  Level Denver Center
07:26PM 37.4239 -109.7928 240° Southwest 426 490 38,000  Level Denver Center
07:27PM 37.3669 -109.9183 240° Southwest 430 495 38,000  Level Denver Center
07:28PM 37.3008 -110.0631 240° Southwest 429 494 38,000  Level Denver Center
07:29PM 37.2444 -110.1853 240° Southwest 425 489 38,000  Level Denver Center
07:30PM 37.1906 -110.3058 241° Southwest 425 489 38,000  Level Denver Center
07:31PM 37.1178 -110.4608 240° Southwest 430 495 38,000  Level Denver Center
07:32PM 37.0583 -110.5881 240° Southwest 425 489 38,000  Level Denver Center
07:33PM 36.9997 -110.7158 240° Southwest 423 487 38,000  Level Denver Center
07:34PM 36.9394 -110.8428 239° Southwest 424 488 38,000  Level Denver Center
07:35PM 36.8808 -110.9703 240° Southwest 423 487 38,000  Level Denver Center
07:36PM 36.8222 -111.0953 240° Southwest 419 482 38,000  Level Denver Center
07:37PM 36.7506 -111.2481 240° Southwest 421 484 38,000  Level Denver Center
07:38PM 36.6892 -111.3756 239° Southwest 426 490 38,000  Level Denver Center
07:39PM 36.6281 -111.5025 239° Southwest 427 491 38,000  Level Denver Center
07:41PM 36.5731 -111.6331 242° Southwest 427 491 38,000  Level Denver Center
07:42PM 36.5194 -111.7619 243° Southwest 423 487 38,000  Level Denver Center
07:43PM 36.4664 -111.8903 243° Southwest 419 482 38,000  Level Denver Center
07:43PM 36.4094 -112.0214 242° Southwest 423 487 38,000  Level Los Angeles Center
07:44PM 36.3558 -112.1503 243° Southwest 421 484 38,000  Level Los Angeles Center
07:46PM 36.3014 -112.2797 242° Southwest 422 486 38,000  Level Los Angeles Center
07:47PM 36.2467 -112.4103 243° Southwest 425 489 38,000  Level Los Angeles Center
07:48PM 36.1803 -112.5642 242° Southwest 423 487 38,000  Level Los Angeles Center
07:49PM 36.1258 -112.6939 243° Southwest 424 488 38,000  Level Los Angeles Center
07:50PM 36.0592 -112.8500 242° Southwest 426 490 38,000  Level Los Angeles Center
07:51PM 36.0028 -112.9803 242° Southwest 430 495 38,000  Level Los Angeles Center
07:52PM 35.9539 -113.0931 242° Southwest 429 494 38,000  Level Los Angeles Center
07:53PM 35.8875 -113.2464 242° Southwest 427 491 38,000  Level Los Angeles Center
07:54PM 35.8322 -113.3747 242° Southwest 428 493 38,000  Level Los Angeles Center
07:55PM 35.7758 -113.5025 241° Southwest 430 495 38,000  Level Los Angeles Center
07:56PM 35.7150 -113.6422 242° Southwest 430 495 38,000  Level Los Angeles Center
07:57PM 35.6517 -113.7842 241° Southwest 430 495 38,000  Level Los Angeles Center
07:58PM 35.5950 -113.9131 242° Southwest 432 497 38,000  Level Los Angeles Center
07:59PM 35.5375 -114.0411 241° Southwest 431 496 38,000  Level Los Angeles Center
08:00PM 35.4806 -114.1686 241° Southwest 430 495 38,000  Level Los Angeles Center
08:01PM 35.4144 -114.3142 241° Southwest 431 496 38,000  Level Los Angeles Center
08:02PM 35.3556 -114.4456 241° Southwest 436 502 38,000  Level Los Angeles Center
08:03PM 35.2983 -114.5733 241° Southwest 430 495 38,000  Level Los Angeles Center
08:04PM 35.2406 -114.7019 241° Southwest 429 494 38,000  Level Los Angeles Center
08:05PM 35.1806 -114.8311 240° Southwest 433 498 38,000  Level Los Angeles Center
08:06PM 35.1106 -114.9853 241° Southwest 430 495 38,000  Level Los Angeles Center
08:07PM 35.0519 -115.1131 241° Southwest 431 496 38,000  Level Los Angeles Center
08:09PM 34.9925 -115.2425 241° Southwest 433 498 38,000  Level Los Angeles Center
08:10PM 34.9286 -115.3808 241° Southwest 435 501 38,000  Level Los Angeles Center
08:11PM 34.8742 -115.4983 241° Southwest 431 496 38,000  Level Los Angeles Center
08:12PM 34.8108 -115.6356 241° Southwest 433 498 38,000  Level Los Angeles Center
08:13PM 34.7508 -115.7642 240° Southwest 436 502 38,000  Level Los Angeles Center
08:14PM 34.6897 -115.8911 240° Southwest 436 502 38,000 -180 Level Los Angeles Center
08:15PM 34.6308 -116.0194 241° Southwest 435 501 37,700 -1,260 Descending Los Angeles Center
08:16PM 34.5561 -116.1767 240° Southwest 447 514 35,400 -2,160 Descending Los Angeles Center
08:17PM 34.4936 -116.3086 240° Southwest 452 520 33,300 -2,100 Descending Los Angeles Center
08:18PM 34.4308 -116.4400 240° Southwest 450 518 31,100 -2,160 Descending Los Angeles Center
08:19PM 34.3675 -116.5725 240° Southwest 453 521 28,900 -2,160 Descending Los Angeles Center
08:20PM 34.3056 -116.6994 239° Southwest 442 509 26,700 -2,160 Descending Los Angeles Center
08:21PM 34.2478 -116.8206 240° Southwest 422 486 24,400 -2,400 Descending Los Angeles Center
08:22PM 34.1814 -116.9558 239° Southwest 395 455 21,800 -2,340 Descending Los Angeles Center
08:23PM 34.1283 -117.0658 240° Southwest 382 440 19,600 -2,280 Descending Los Angeles Center
08:24PM 34.1000 -117.1333 243° Southwest 371 427 18,100 -2,160 Descending Southern California TRACON
08:25PM 34.0500 -117.2500 243° Southwest 357 411 16,200 -1,980 Descending Southern California TRACON
08:26PM 34.0333 -117.3667 260° West 340 391 14,200 -1,980 Descending Southern California TRACON
08:27PM 34.0333 -117.4667 270° West 343 395 12,500 -1,740 Descending Southern California TRACON
08:28PM 34.0167 -117.5667 259° West 315 362 11,000 -1,260 Descending Southern California TRACON
08:29PM 34.0000 -117.6833 260° West 313 360 9,900 -900 Descending Southern California TRACON
08:30PM 34.0000 -117.7833 270° West 309 356 9,200 -840 Descending Southern California TRACON
08:31PM 33.9833 -117.8833 259° West 290 334 8,300 -1,260 Descending Southern California TRACON
08:32PM 33.9833 -117.9667 270° West 278 320 6,800 -1,560 Descending Southern California TRACON
08:33PM 33.9667 -118.0500 256° West 246 283 5,400 -1,320 Descending Southern California TRACON
08:34PM 33.9667 -118.1167 270° West 211 243 4,200 -1,200 Descending Southern California TRACON